Time;durP1;ratioP1;P1;durP2;ratioP2;P2;SDS_P1;SDS_P2;PMS_P1;PMS_P2;Temp;Humidity;BMP_temperature;BMP_pressure;BME280_temperature;BME280_humidity;BME280_pressure;Samples;Min_cycle;Max_cycle;Signal;HPM_P1;HPM_P2
2022/07/02 00:00:46;;;;;;;0.10;0.10;;;;;;;26.19;46.09;100084.81;4997248;28;20087;-78
2022/07/02 00:03:15;;;;;;;0.10;0.10;;;;;;;26.34;46.29;100082.94;4997138;28;20049;-78
2022/07/02 00:05:47;;;;;;;0.10;0.10;;;;;;;26.31;46.60;100083.84;4981634;28;20030;-78
2022/07/02 00:08:13;;;;;;;0.10;0.10;;;;;;;26.39;46.02;100088.00;4997140;28;20061;-78
2022/07/02 00:10:40;;;;;;;0.15;0.15;;;;;;;26.25;46.79;100083.69;4997214;28;20061;-78
2022/07/02 00:13:06;;;;;;;0.10;0.10;;;;;;;26.17;46.64;100082.44;4997134;28;20032;-78
2022/07/02 00:15:33;;;;;;;0.10;0.10;;;;;;;26.11;46.89;100073.72;4997441;28;20030;-78
2022/07/02 00:17:59;;;;;;;0.10;0.10;;;;;;;26.20;46.38;100081.47;4997404;28;20203;-78
2022/07/02 00:20:25;;;;;;;0.10;0.10;;;;;;;26.07;46.33;100078.78;4997742;28;20069;-77
2022/07/02 00:22:53;;;;;;;0.10;0.10;;;;;;;26.01;46.38;100086.38;5015255;28;20034;-78
2022/07/02 00:25:19;;;;;;;0.10;0.10;;;;;;;25.99;46.83;100094.56;4996786;28;20040;-78
2022/07/02 00:27:45;;;;;;;0.10;0.10;;;;;;;26.03;46.20;100091.59;4997182;28;20029;-78
2022/07/02 00:30:13;;;;;;;0.10;0.10;;;;;;;26.10;46.24;100091.31;4996609;28;20034;-78
2022/07/02 00:32:40;;;;;;;0.10;0.10;;;;;;;25.92;46.32;100094.88;4996871;28;20029;-78
2022/07/02 00:35:08;;;;;;;0.10;0.10;;;;;;;25.76;47.11;100098.00;4996397;28;20096;-77
2022/07/02 00:37:37;;;;;;;0.10;0.10;;;;;;;25.82;47.31;100093.25;4996885;28;20022;-77
2022/07/02 00:40:06;;;;;;;0.10;0.10;;;;;;;25.56;47.99;100090.59;5014644;28;20034;-77
2022/07/02 00:42:35;;;;;;;0.20;0.20;;;;;;;25.27;49.80;100107.25;4996438;28;20116;-77
2022/07/02 00:45:01;;;;;;;0.10;0.10;;;;;;;25.15;50.31;100105.28;4996653;28;20104;-77
2022/07/02 00:47:27;;;;;;;0.10;0.10;;;;;;;25.23;51.26;100106.59;4996293;28;20060;-79
2022/07/02 00:49:53;;;;;;;0.10;0.10;;;;;;;25.14;53.25;100110.19;4995447;28;20065;-77
2022/07/02 00:52:18;;;;;;;0.10;0.10;;;;;;;25.01;53.70;100112.28;4996467;28;20033;-77
2022/07/02 00:54:44;;;;;;;0.10;0.10;;;;;;;24.81;55.04;100107.69;4996102;28;20475;-78
2022/07/02 00:57:11;;;;;;;0.10;0.10;;;;;;;24.75;56.23;100120.13;4996152;28;20030;-77
2022/07/02 00:59:36;;;;;;;0.20;0.20;;;;;;;24.63;56.42;100121.78;5013947;28;20076;-78
2022/07/02 01:02:04;;;;;;;0.15;0.15;;;;;;;24.62;56.47;100114.50;4996431;28;20030;-78
2022/07/02 01:04:32;;;;;;;0.20;0.20;;;;;;;24.68;56.43;100117.56;4996106;28;20030;-78
2022/07/02 01:07:03;;;;;;;0.20;0.20;;;;;;;24.67;56.63;100118.81;4996129;28;20080;-78
2022/07/02 01:12:24;;;;;;;0.17;0.17;;;;;;;24.75;57.63;100129.47;5014282;28;20045;-78
2022/07/02 01:14:51;;;;;;;0.10;0.10;;;;;;;24.77;58.34;100134.72;4997215;28;20125;-77
2022/07/02 01:17:17;;;;;;;0.10;0.10;;;;;;;24.92;58.04;100138.59;4996489;28;20117;-78
2022/07/02 01:19:43;;;;;;;0.20;0.20;;;;;;;24.91;58.37;100137.03;4996019;28;20058;-78
2022/07/02 01:22:13;;;;;;;0.10;0.10;;;;;;;24.90;58.83;100137.50;4996231;28;20092;-78
2022/07/02 01:24:39;;;;;;;0.10;0.10;;;;;;;24.82;59.10;100142.63;4995988;28;20042;-78
2022/07/02 01:27:05;;;;;;;0.20;0.20;;;;;;;24.83;59.36;100144.25;4995815;28;20026;-78
2022/07/02 01:29:30;;;;;;;0.10;0.10;;;;;;;24.77;59.51;100132.66;4995992;28;20121;-78
2022/07/02 01:31:56;;;;;;;0.10;0.10;;;;;;;24.84;59.08;100128.75;4995968;28;20199;-78
2022/07/02 01:34:22;;;;;;;0.10;0.10;;;;;;;24.76;58.00;100139.59;4996760;28;20042;-78
2022/07/02 01:36:48;;;;;;;0.10;0.10;;;;;;;24.89;56.62;100136.69;4996159;28;20443;-78
2022/07/02 01:39:14;;;;;;;0.10;0.10;;;;;;;24.74;54.66;100133.56;5013481;28;20025;-78
2022/07/02 01:41:40;;;;;;;0.13;0.13;;;;;;;24.82;54.67;100140.59;4995861;28;20389;-78
2022/07/02 01:44:09;;;;;;;0.10;0.10;;;;;;;24.87;53.26;100142.03;4996924;28;20132;-78
2022/07/02 01:46:36;;;;;;;0.17;0.17;;;;;;;24.83;53.65;100130.00;4996062;28;20380;-78
2022/07/02 01:49:02;;;;;;;0.10;0.10;;;;;;;24.86;53.33;100139.66;4996313;28;20133;-78
2022/07/02 01:51:28;;;;;;;0.15;0.15;;;;;;;24.94;53.08;100130.41;4996084;28;20373;-78
2022/07/02 01:53:53;;;;;;;0.20;0.20;;;;;;;24.92;53.16;100134.97;4995884;28;20029;-78
2022/07/02 01:56:19;;;;;;;0.13;0.13;;;;;;;24.95;53.10;100143.38;4995754;28;20377;-78
2022/07/02 01:58:45;;;;;;;0.10;0.10;;;;;;;24.98;53.01;100142.47;4996192;28;20030;-78
2022/07/02 02:01:10;;;;;;;0.10;0.10;;;;;;;24.88;53.31;100137.97;4998068;28;20484;-78
2022/07/02 02:03:36;;;;;;;0.20;0.20;;;;;;;24.89;52.89;100133.84;4999782;28;20038;-78
2022/07/02 02:06:02;;;;;;;0.10;0.10;;;;;;;24.86;53.19;100129.06;4999421;28;20127;-78
2022/07/02 02:08:28;;;;;;;0.20;0.20;;;;;;;24.87;53.70;100135.56;5000005;28;20363;-78
2022/07/02 02:10:54;;;;;;;0.10;0.10;;;;;;;24.84;53.46;100140.13;5001250;28;20105;-78
2022/07/02 02:13:19;;;;;;;0.10;0.10;;;;;;;24.82;53.95;100143.44;5000273;28;20116;-78
2022/07/02 02:15:45;;;;;;;0.10;0.10;;;;;;;24.77;53.99;100143.25;4999258;28;20106;-78
2022/07/02 02:18:10;;;;;;;0.15;0.15;;;;;;;24.71;54.14;100133.69;4999032;28;20121;-78
2022/07/02 02:20:36;;;;;;;0.10;0.10;;;;;;;24.68;54.54;100140.31;4995393;28;20058;-78
2022/07/02 02:23:04;;;;;;;0.10;0.10;;;;;;;24.69;54.69;100147.59;4997038;28;20034;-77
2022/07/02 02:25:33;;;;;;;0.10;0.10;;;;;;;24.75;54.97;100151.44;4996241;28;20035;-77
2022/07/02 02:27:59;;;;;;;0.10;0.10;;;;;;;24.77;54.77;100148.94;4995670;28;20496;-77
2022/07/02 02:30:25;;;;;;;0.10;0.10;;;;;;;24.72;55.00;100149.53;4995847;28;20034;-77
2022/07/02 02:32:51;;;;;;;0.10;0.10;;;;;;;24.68;55.68;100146.00;4995387;28;20049;-77
2022/07/02 02:35:17;;;;;;;0.20;0.20;;;;;;;24.70;55.41;100141.44;4995130;28;20034;-77
2022/07/02 02:37:42;;;;;;;0.10;0.10;;;;;;;24.68;55.66;100148.84;4995816;28;20026;-78
2022/07/02 02:40:08;;;;;;;0.10;0.10;;;;;;;24.68;55.67;100157.38;4995727;28;20362;-77
2022/07/02 02:42:34;;;;;;;0.10;0.10;;;;;;;24.76;55.32;100153.00;4995801;28;20034;-77
2022/07/02 02:44:59;;;;;;;0.10;0.10;;;;;;;24.71;54.96;100162.13;4995159;28;20030;-77
2022/07/02 02:47:25;;;;;;;0.10;0.10;;;;;;;24.64;55.31;100151.03;4995829;28;20077;-77
2022/07/02 02:49:50;;;;;;;0.10;0.10;;;;;;;24.63;55.77;100157.97;4995631;28;20496;-77
2022/07/02 02:52:16;;;;;;;0.10;0.10;;;;;;;24.58;55.59;100156.50;4995533;28;20423;-77
2022/07/02 02:54:42;;;;;;;0.10;0.10;;;;;;;24.61;55.57;100166.16;4995147;28;20030;-77
2022/07/02 02:57:08;;;;;;;0.17;0.17;;;;;;;24.75;55.18;100157.91;4995383;28;20029;-77
2022/07/02 02:59:34;;;;;;;0.10;0.10;;;;;;;24.62;55.41;100153.53;4995047;28;20026;-77
2022/07/02 03:01:59;;;;;;;0.10;0.10;;;;;;;24.68;55.48;100168.78;4995252;28;20034;-78
2022/07/02 03:04:25;;;;;;;0.10;0.10;;;;;;;24.78;55.40;100173.28;4995386;28;20085;-78
2022/07/02 03:06:50;;;;;;;0.10;0.10;;;;;;;24.67;55.65;100167.19;4995839;28;20026;-78
2022/07/02 03:09:15;;;;;;;0.10;0.10;;;;;;;24.74;55.26;100170.56;4995263;28;20034;-78
2022/07/02 03:11:41;;;;;;;0.10;0.10;;;;;;;24.62;55.85;100164.91;4994074;28;20473;-78
2022/07/02 03:14:07;;;;;;;0.10;0.10;;;;;;;24.59;56.38;100160.94;4994826;28;20117;-78
2022/07/02 03:16:32;;;;;;;0.13;0.13;;;;;;;24.80;55.69;100162.22;4994772;28;20053;-78
2022/07/02 03:18:58;;;;;;;0.15;0.15;;;;;;;24.76;55.67;100168.03;4996346;28;20077;-78
2022/07/02 03:21:23;;;;;;;0.20;0.20;;;;;;;24.63;56.28;100172.19;5015742;28;20030;-78
2022/07/02 03:23:49;;;;;;;0.20;0.20;;;;;;;24.53;56.14;100172.09;4997872;28;20076;-78
2022/07/02 03:26:14;;;;;;;0.20;0.20;;;;;;;24.51;56.60;100174.63;4997762;28;20034;-78
2022/07/02 03:28:40;;;;;;;0.10;0.10;;;;;;;24.52;56.59;100169.72;4998617;28;20058;-78
2022/07/02 03:31:06;;;;;;;0.13;0.13;;;;;;;24.53;56.89;100171.31;4997565;28;20034;-78
2022/07/02 03:33:31;;;;;;;0.20;0.20;;;;;;;24.57;56.77;100177.69;4998314;28;20057;-78
2022/07/02 03:35:57;;;;;;;0.10;0.10;;;;;;;24.56;57.03;100176.09;4997723;28;20025;-78
2022/07/02 03:38:22;;;;;;;0.15;0.15;;;;;;;24.52;57.28;100172.56;4997992;28;20034;-78
2022/07/02 03:40:48;;;;;;;0.15;0.15;;;;;;;24.35;57.22;100146.34;4997793;28;20026;-78
2022/07/02 03:43:13;;;;;;;0.10;0.10;;;;;;;24.44;57.26;100169.16;4997938;28;20033;-78
2022/07/02 03:45:39;;;;;;;0.10;0.10;;;;;;;24.59;57.30;100172.31;4997990;28;20487;-78
2022/07/02 03:48:04;;;;;;;0.10;0.10;;;;;;;24.55;57.48;100169.59;4997518;28;20409;-78
2022/07/02 03:50:30;;;;;;;0.10;0.10;;;;;;;24.40;57.50;100150.66;4997497;28;20026;-78
2022/07/02 03:52:56;;;;;;;0.10;0.10;;;;;;;24.56;57.40;100174.03;4997839;28;20030;-78
2022/07/02 03:55:21;;;;;;;0.13;0.13;;;;;;;24.60;57.63;100173.09;4997392;28;20436;-78
2022/07/02 03:57:47;;;;;;;0.10;0.10;;;;;;;24.65;57.66;100181.06;4997468;28;20109;-78
2022/07/02 04:00:13;;;;;;;0.10;0.10;;;;;;;24.70;57.53;100183.31;4998915;28;20464;-78
2022/07/02 04:02:39;;;;;;;0.10;0.10;;;;;;;24.76;57.21;100178.63;5000223;28;20361;-78
2022/07/02 04:05:05;;;;;;;0.10;0.10;;;;;;;24.91;57.05;100181.75;5014844;28;20108;-78
2022/07/02 04:07:31;;;;;;;0.10;0.10;;;;;;;25.12;56.05;100181.00;5014775;28;20037;-78
2022/07/02 04:09:56;;;;;;;0.10;0.10;;;;;;;25.25;56.22;100178.13;4997652;28;20384;-78
2022/07/02 04:12:22;;;;;;;0.10;0.10;;;;;;;25.40;55.69;100184.81;4996902;28;20400;-78
2022/07/02 04:14:47;;;;;;;0.10;0.10;;;;;;;25.53;55.28;100181.91;4997058;28;20037;-78
2022/07/02 04:17:13;;;;;;;0.10;0.10;;;;;;;25.75;54.56;100187.59;4997157;28;20034;-78
2022/07/02 04:19:39;;;;;;;0.10;0.10;;;;;;;25.99;54.19;100190.69;4996841;28;20064;-78
2022/07/02 04:22:04;;;;;;;0.10;0.10;;;;;;;26.21;53.37;100184.94;4997650;28;20108;-75
2022/07/02 04:24:30;;;;;;;0.10;0.10;;;;;;;26.45;53.31;100182.31;4996544;28;20038;-75
2022/07/02 04:26:58;;;;;;;0.13;0.13;;;;;;;26.73;52.09;100188.84;4996687;28;20076;-76
2022/07/02 04:29:24;;;;;;;0.10;0.10;;;;;;;26.94;51.82;100195.69;4996631;28;20034;-76
2022/07/02 04:31:50;;;;;;;0.10;0.10;;;;;;;27.12;51.47;100193.66;4996643;28;20033;-76
2022/07/02 04:34:15;;;;;;;0.10;0.10;;;;;;;27.44;50.31;100194.25;4996905;28;20029;-75
2022/07/02 04:36:41;;;;;;;0.10;0.10;;;;;;;27.73;49.86;100192.94;4996503;28;20017;-76
2022/07/02 04:39:06;;;;;;;0.10;0.10;;;;;;;28.02;48.53;100193.16;4996783;28;20041;-76
2022/07/02 04:41:32;;;;;;;0.10;0.10;;;;;;;27.97;48.29;100193.81;4996720;28;20029;-75
2022/07/02 04:44:01;;;;;;;0.10;0.10;;;;;;;27.59;48.13;100198.03;4996524;28;20203;-75
2022/07/02 04:46:26;;;;;;;0.20;0.20;;;;;;;27.27;48.22;100195.84;4996433;28;20329;-75
2022/07/02 04:48:52;;;;;;;0.10;0.10;;;;;;;26.95;48.62;100198.06;4996298;28;20037;-74
2022/07/02 04:51:18;;;;;;;0.10;0.10;;;;;;;26.90;48.76;100173.03;4996369;28;20036;-75
2022/07/02 04:53:44;;;;;;;0.10;0.10;;;;;;;27.42;48.34;100194.72;4996353;28;20030;-74
2022/07/02 04:56:10;;;;;;;0.15;0.15;;;;;;;27.96;47.40;100197.91;4996132;28;20121;-76
2022/07/02 04:58:36;;;;;;;0.20;0.20;;;;;;;28.42;45.98;100198.50;4996547;28;20488;-76
2022/07/02 05:01:01;;;;;;;0.10;0.10;;;;;;;28.67;44.77;100185.81;4980022;28;20026;-75
2022/07/02 05:03:27;;;;;;;0.10;0.10;;;;;;;28.97;44.77;100194.50;4996191;28;20042;-75
2022/07/02 05:05:53;;;;;;;0.20;0.20;;;;;;;28.92;44.22;100195.97;4996043;28;20030;-76
2022/07/02 05:08:24;;;;;;;0.10;0.10;;;;;;;29.45;43.33;100202.97;4996164;28;20038;-75
2022/07/02 05:10:49;;;;;;;0.20;0.20;;;;;;;29.78;43.11;100196.28;4996574;28;20037;-76
2022/07/02 05:13:15;;;;;;;0.10;0.10;;;;;;;29.90;42.41;100187.34;4995878;28;20465;-75
2022/07/02 05:15:41;;;;;;;0.20;0.20;;;;;;;30.27;42.22;100198.38;4996216;28;20033;-75
2022/07/02 05:18:06;;;;;;;0.10;0.10;;;;;;;30.43;41.52;100191.31;4995869;28;20084;-76
2022/07/02 05:20:32;;;;;;;0.10;0.10;;;;;;;30.45;41.46;100203.84;4995693;28;20050;-75
2022/07/02 05:22:57;;;;;;;0.10;0.10;;;;;;;30.05;43.47;100193.06;4996113;28;20384;-75
2022/07/02 05:25:23;;;;;;;0.10;0.10;;;;;;;30.23;42.78;100198.59;4995660;28;20030;-75
2022/07/02 05:27:48;;;;;;;0.15;0.15;;;;;;;29.94;43.04;100202.28;4995602;28;20026;-74
2022/07/02 05:30:14;;;;;;;0.10;0.10;;;;;;;29.79;43.62;100209.34;4996038;28;20034;-76
2022/07/02 05:32:39;;;;;;;0.10;0.10;;;;;;;29.66;44.13;100198.94;4995944;28;20040;-74
2022/07/02 05:35:05;;;;;;;0.10;0.10;;;;;;;29.88;42.49;100198.56;4996395;28;20124;-74
2022/07/02 05:37:31;;;;;;;0.15;0.15;;;;;;;30.21;42.28;100189.69;4999987;28;20540;-75
2022/07/02 05:39:56;;;;;;;0.15;0.15;;;;;;;30.66;41.61;100190.31;5000231;28;20048;-75
2022/07/02 05:42:22;;;;;;;0.10;0.10;;;;;;;30.30;42.42;100196.59;4999708;28;20061;-76
2022/07/02 05:44:47;;;;;;;0.10;0.10;;;;;;;30.70;41.91;100202.41;5000098;28;20125;-75
2022/07/02 05:47:13;;;;;;;0.10;0.10;;;;;;;30.69;42.17;100194.28;5000013;28;20473;-74
2022/07/02 05:49:38;;;;;;;0.10;0.10;;;;;;;30.30;42.93;100202.31;4999946;28;20548;-76
2022/07/02 05:52:04;;;;;;;0.10;0.10;;;;;;;30.17;43.17;100202.66;4999644;28;20034;-75
2022/07/02 05:54:33;;;;;;;0.10;0.10;;;;;;;30.88;41.43;100177.56;4999568;28;20042;-75
2022/07/02 05:57:01;;;;;;;0.10;0.10;;;;;;;30.27;42.42;100204.91;4999828;28;20026;-75
2022/07/02 05:59:30;;;;;;;0.10;0.10;;;;;;;29.80;43.86;100210.91;4999446;28;20030;-75
2022/07/02 06:01:58;;;;;;;0.10;0.10;;;;;;;30.35;43.08;100208.16;4999182;28;20599;-75
2022/07/02 06:04:24;;;;;;;0.10;0.10;;;;;;;30.64;42.02;100207.25;4999027;28;20033;-74
2022/07/02 06:09:33;;;;;;;0.10;0.10;;;;;;;31.33;40.93;100201.09;5017334;28;20449;-75
2022/07/02 06:12:01;;;;;;;0.20;0.20;;;;;;;31.43;40.99;100193.88;4999415;28;20029;-75
2022/07/02 06:14:27;;;;;;;0.10;0.10;;;;;;;31.56;40.52;100202.88;4999404;28;20026;-74
2022/07/02 06:16:52;;;;;;;0.10;0.10;;;;;;;31.59;40.28;100213.38;4998704;28;20084;-74
2022/07/02 06:19:20;;;;;;;0.10;0.10;;;;;;;31.60;40.64;100209.19;4995706;28;20062;-75
2022/07/02 06:21:46;;;;;;;0.10;0.10;;;;;;;31.88;39.93;100208.66;4996261;28;20347;-75
2022/07/02 06:24:12;;;;;;;0.10;0.10;;;;;;;31.53;40.61;100215.38;4995709;28;20038;-75
2022/07/02 06:26:37;;;;;;;0.10;0.10;;;;;;;31.64;41.27;100215.50;4996801;28;20026;-75
2022/07/02 06:29:03;;;;;;;0.10;0.10;;;;;;;31.34;41.54;100217.03;4995886;28;20034;-73
2022/07/02 06:31:29;;;;;;;0.10;0.10;;;;;;;32.01;40.51;100214.78;4995505;28;20170;-74
2022/07/02 06:33:54;;;;;;;0.10;0.10;;;;;;;31.29;41.69;100216.44;4995595;28;20130;-75
2022/07/02 06:36:22;;;;;;;0.10;0.10;;;;;;;31.77;40.91;100215.88;4995394;28;20033;-76
2022/07/02 06:38:48;;;;;;;0.10;0.10;;;;;;;31.68;41.39;100216.03;4995349;28;20094;-74
2022/07/02 06:43:58;;;;;;;0.10;0.10;;;;;;;32.28;39.65;100216.28;4996863;28;20393;-74
2022/07/02 06:46:26;;;;;;;0.10;0.10;;;;;;;32.31;39.64;100218.94;4994017;28;20030;-75
2022/07/02 06:48:52;;;;;;;0.10;0.10;;;;;;;32.16;39.93;100215.41;4994935;28;20030;-75
2022/07/02 06:51:18;;;;;;;0.10;0.10;;;;;;;32.85;38.90;100218.19;4995466;28;20030;-75
2022/07/02 06:53:46;;;;;;;0.10;0.10;;;;;;;33.29;37.53;100220.50;4995183;28;20515;-75
2022/07/02 06:56:11;;;;;;;0.10;0.10;;;;;;;33.00;38.23;100215.16;4994916;28;20034;-75
2022/07/02 06:58:37;;;;;;;0.10;0.10;;;;;;;33.51;37.02;100213.22;4995231;28;20038;-75
2022/07/02 07:01:09;;;;;;;0.10;0.10;;;;;;;33.50;36.82;100220.28;4995957;28;20114;-75
2022/07/02 07:03:34;;;;;;;0.10;0.10;;;;;;;33.56;36.22;100219.00;4995187;28;20116;-75
2022/07/02 07:06:03;;;;;;;0.10;0.10;;;;;;;33.86;35.69;100225.03;4995071;28;20495;-76
2022/07/02 07:08:29;;;;;;;0.10;0.10;;;;;;;35.12;33.01;100227.97;4995911;28;20092;-76
2022/07/02 07:10:56;;;;;;;0.10;0.10;;;;;;;35.35;32.67;100226.53;4994837;28;20114;-76
2022/07/02 07:13:21;;;;;;;0.10;0.10;;;;;;;34.90;32.83;100234.63;4994763;28;20481;-74
2022/07/02 07:15:47;;;;;;;0.10;0.10;;;;;;;34.98;31.99;100224.09;4994700;28;20062;-74
2022/07/02 07:18:15;;;;;;;0.10;0.10;;;;;;;34.92;32.14;100226.97;4994758;28;20049;-76
2022/07/02 07:20:41;;;;;;;0.10;0.10;;;;;;;34.73;32.41;100220.25;4994472;28;20046;-75
2022/07/02 07:23:06;;;;;;;0.10;0.10;;;;;;;35.24;31.79;100217.91;4994673;28;20033;-76
2022/07/02 07:25:32;;;;;;;0.10;0.10;;;;;;;35.93;30.29;100214.84;4995531;28;20034;-75
2022/07/02 07:27:58;;;;;;;0.10;0.10;;;;;;;35.44;30.83;100219.66;4995140;28;20389;-74
2022/07/02 07:30:23;;;;;;;0.10;0.10;;;;;;;35.06;31.91;100212.78;4994861;28;20026;-75
2022/07/02 07:32:49;;;;;;;0.10;0.10;;;;;;;34.40;31.68;100216.09;4994848;28;20457;-74
2022/07/02 07:35:17;;;;;;;0.10;0.10;;;;;;;33.94;32.56;100213.81;4994692;28;20437;-75
2022/07/02 07:37:57;;;;;;;0.10;0.10;;;;;;;33.98;32.54;100211.41;4994592;28;20461;-75
2022/07/02 07:40:23;;;;;;;0.15;0.15;;;;;;;34.51;31.91;100215.28;4995309;28;20378;-74
2022/07/02 07:42:49;;;;;;;0.10;0.10;;;;;;;34.55;31.83;100209.25;4994679;28;20046;-76
2022/07/02 07:45:14;;;;;;;0.10;0.10;;;;;;;33.86;32.81;100201.94;4995157;28;20022;-75
2022/07/02 07:47:40;;;;;;;0.10;0.10;;;;;;;34.19;32.14;100205.38;4994752;28;20381;-74
2022/07/02 07:50:06;;;;;;;0.15;0.15;;;;;;;34.67;31.64;100194.22;4994308;28;20026;-76
2022/07/02 07:52:32;;;;;;;0.10;0.10;;;;;;;34.75;31.76;100203.16;4994008;28;20022;-74
2022/07/02 07:54:57;;;;;;;0.10;0.10;;;;;;;34.42;31.83;100200.34;4994036;28;20034;-75
2022/07/02 07:57:23;;;;;;;0.10;0.10;;;;;;;34.56;31.10;100205.03;4993711;28;20053;-75
2022/07/02 07:59:48;;;;;;;0.10;0.10;;;;;;;35.57;30.06;100198.78;4993747;28;20030;-76
2022/07/02 08:02:15;;;;;;;0.10;0.10;;;;;;;35.34;30.20;100201.81;4994520;28;20034;-74
2022/07/02 08:04:41;;;;;;;0.10;0.10;;;;;;;34.70;31.26;100206.84;4994751;28;20034;-76
2022/07/02 08:07:06;;;;;;;0.10;0.10;;;;;;;36.01;29.49;100208.44;4994467;28;20041;-73
2022/07/02 08:09:32;;;;;;;0.10;0.10;;;;;;;37.06;28.07;100211.53;4994167;28;20519;-75
2022/07/02 08:11:57;;;;;;;0.10;0.10;;;;;;;37.69;27.14;100200.63;4993525;28;20034;-74
2022/07/02 08:14:23;;;;;;;0.10;0.10;;;;;;;36.56;28.44;100206.34;4993431;28;20084;-77
2022/07/02 08:16:48;;;;;;;0.10;0.10;;;;;;;36.32;28.75;100195.50;4993676;28;20144;-74
2022/07/02 08:19:14;;;;;;;0.10;0.10;;;;;;;37.54;27.47;100200.31;4993162;28;20497;-75
2022/07/02 08:21:40;;;;;;;0.10;0.10;;;;;;;36.79;27.53;100198.94;4994600;28;20117;-74
2022/07/02 08:24:05;;;;;;;0.10;0.10;;;;;;;36.91;27.24;100209.09;4993345;28;20129;-74
2022/07/02 08:26:31;;;;;;;0.10;0.10;;;;;;;35.94;29.01;100206.94;4993340;28;20034;-75
2022/07/02 08:28:56;;;;;;;0.10;0.10;;;;;;;36.86;27.53;100207.03;4993318;28;20038;-77
2022/07/02 08:31:22;;;;;;;0.10;0.10;;;;;;;37.94;26.92;100202.06;4993165;28;20117;-75
2022/07/02 08:33:48;;;;;;;0.10;0.10;;;;;;;38.60;25.04;100207.19;4993210;28;20057;-77
2022/07/02 08:36:13;;;;;;;0.10;0.10;;;;;;;38.89;24.88;100208.22;4993395;28;20073;-76
2022/07/02 08:38:39;;;;;;;0.10;0.10;;;;;;;39.67;23.61;100199.06;4993122;28;20093;-76
2022/07/02 08:41:06;;;;;;;0.10;0.10;;;;;;;40.08;23.05;100200.44;4993238;28;20030;-76
2022/07/02 08:43:34;;;;;;;0.10;0.10;;;;;;;40.49;22.17;100197.47;4993708;28;20034;-77
2022/07/02 08:46:04;;;;;;;0.10;0.10;;;;;;;40.49;22.39;100197.47;4993156;28;20030;-75
2022/07/02 08:48:32;;;;;;;0.10;0.10;;;;;;;39.50;23.56;100197.31;4994625;28;20042;-75
2022/07/02 08:50:58;;;;;;;0.10;0.10;;;;;;;39.14;23.40;100199.22;4993097;28;20034;-73
2022/07/02 08:53:24;;;;;;;0.10;0.10;;;;;;;39.05;23.67;100200.47;4993037;28;20113;-75
2022/07/02 08:55:50;;;;;;;0.10;0.10;;;;;;;38.72;23.59;100199.00;4993015;28;20129;-75
2022/07/02 08:58:17;;;;;;;0.10;0.10;;;;;;;38.86;23.92;100194.00;4977003;28;20030;-74
2022/07/02 09:00:43;;;;;;;0.10;0.10;;;;;;;38.68;23.74;100184.06;4994830;28;20429;-75
2022/07/02 09:03:11;;;;;;;0.10;0.10;;;;;;;38.61;24.46;100202.94;4992818;28;20035;-76
2022/07/02 09:05:39;;;;;;;0.10;0.10;;;;;;;38.98;23.91;100192.41;4993005;28;20040;-76
2022/07/02 09:08:06;;;;;;;0.10;0.10;;;;;;;38.60;24.40;100195.56;4992693;28;20520;-73
2022/07/02 09:10:33;;;;;;;0.10;0.10;;;;;;;39.53;23.41;100187.47;4992159;28;20034;-75
2022/07/02 09:12:59;;;;;;;0.10;0.10;;;;;;;39.21;23.37;100193.53;4992999;28;20034;-74
2022/07/02 09:15:25;;;;;;;0.10;0.10;;;;;;;38.68;23.54;100192.78;4993369;28;20061;-75
2022/07/02 09:17:51;;;;;;;0.10;0.10;;;;;;;38.65;23.45;100188.06;4993500;28;20461;-76
2022/07/02 09:20:18;;;;;;;0.10;0.10;;;;;;;39.33;23.04;100191.13;4992668;28;20481;-76
2022/07/02 09:22:46;;;;;;;0.10;0.10;;;;;;;38.91;25.74;100193.88;4994507;28;20022;-75
2022/07/02 09:25:18;;;;;;;0.10;0.10;;;;;;;38.72;27.33;100190.28;4993090;28;20126;-76
2022/07/02 09:27:45;;;;;;;0.10;0.10;;;;;;;38.14;27.98;100194.03;4993430;28;20038;-76
2022/07/02 09:30:15;;;;;;;0.10;0.10;;;;;;;37.75;28.23;100187.56;4992733;28;20092;-77
2022/07/02 09:32:43;;;;;;;0.10;0.10;;;;;;;37.99;28.03;100182.97;4992675;28;20034;-75
2022/07/02 09:35:20;;;;;;;0.10;0.10;;;;;;;37.86;28.64;100177.13;4992777;28;20526;-75
2022/07/02 09:37:47;;;;;;;0.10;0.10;;;;;;;38.71;27.47;100188.75;4992637;28;20058;-74
2022/07/02 09:40:14;;;;;;;0.10;0.10;;;;;;;39.18;25.85;100188.81;4992561;28;20038;-76
2022/07/02 09:42:45;;;;;;;0.10;0.10;;;;;;;39.50;25.80;100200.22;4992953;28;20128;-76
2022/07/02 09:45:11;;;;;;;0.10;0.10;;;;;;;40.44;24.99;100195.47;4992908;28;20041;-76
2022/07/02 09:47:38;;;;;;;0.10;0.10;;;;;;;39.92;25.42;100206.09;4992465;28;20113;-75
2022/07/02 09:50:06;;;;;;;0.10;0.10;;;;;;;40.20;25.43;100202.47;4992821;28;20026;-75
2022/07/02 09:52:32;;;;;;;0.10;0.10;;;;;;;39.08;26.56;100207.28;4993021;28;20192;-73
2022/07/02 09:54:58;;;;;;;0.10;0.10;;;;;;;39.97;25.61;100193.53;4991879;28;20436;-74
2022/07/02 09:57:26;;;;;;;0.10;0.10;;;;;;;39.89;25.79;100201.41;4993551;28;20034;-75
2022/07/02 09:59:52;;;;;;;0.10;0.10;;;;;;;38.84;27.45;100203.31;4992720;28;20030;-79
2022/07/02 10:02:26;;;;;;;0.10;0.10;;;;;;;39.97;26.28;100208.09;4991926;28;20477;-79
2022/07/02 10:04:56;;;;;;;0.10;0.10;;;;;;;39.21;26.98;100207.28;4992443;28;20088;-73
2022/07/02 10:07:26;;;;;;;0.10;0.10;;;;;;;38.64;27.81;100201.84;4992604;28;20035;-80
2022/07/02 10:09:53;;;;;;;0.10;0.10;;;;;;;38.71;27.89;100200.38;4992205;28;20026;-75
2022/07/02 10:12:20;;;;;;;0.10;0.10;;;;;;;38.68;27.41;100211.00;4992620;28;20433;-77
2022/07/02 10:14:47;;;;;;;0.10;0.10;;;;;;;38.53;27.66;100202.06;4976165;28;20038;-75
2022/07/02 10:17:15;;;;;;;0.10;0.10;;;;;;;38.36;28.29;100193.69;4992385;28;20038;-72
2022/07/02 10:19:41;;;;;;;0.10;0.10;;;;;;;38.11;29.49;100192.28;4976626;28;20489;-75
2022/07/02 10:22:10;;;;;;;0.10;0.10;;;;;;;38.46;29.11;100191.91;4994577;28;20069;-73
2022/07/02 10:24:37;;;;;;;0.10;0.10;;;;;;;38.00;29.67;100199.84;4995955;28;20037;-72
2022/07/02 10:27:05;;;;;;;0.10;0.10;;;;;;;38.17;29.92;100187.13;4996062;28;20121;-71
2022/07/02 10:29:31;;;;;;;0.10;0.10;;;;;;;39.01;29.07;100189.19;4995333;28;20030;-73
2022/07/02 10:32:06;;;;;;;0.10;0.10;;;;;;;39.00;28.61;100193.44;4996092;28;20363;-72
2022/07/02 10:35:08;;;;;;;0.10;0.10;;;;;;;39.19;28.90;100198.31;4995710;28;20069;-74
2022/07/02 10:37:39;;;;;;;0.10;0.10;;;;;;;39.56;28.29;100197.19;4995521;28;20556;-74
2022/07/02 10:40:08;;;;;;;0.10;0.10;;;;;;;38.94;28.23;100192.78;4995549;28;20034;-74
2022/07/02 10:42:41;;;;;;;0.10;0.10;;;;;;;38.32;28.79;100192.44;4995078;28;20824;-74
2022/07/02 10:45:21;;;;;;;0.10;0.10;;;;;;;38.08;28.79;100187.56;4995302;28;20054;-74
2022/07/02 10:48:02;;;;;;;0.10;0.10;;;;;;;38.57;27.73;100179.25;4995108;28;20116;-74
2022/07/02 10:50:34;;;;;;;0.10;0.10;;;;;;;37.65;28.41;100176.94;4995771;28;20449;-74
2022/07/02 10:53:13;;;;;;;0.10;0.10;;;;;;;38.63;26.55;100167.50;4995117;28;20061;-74
2022/07/02 10:56:05;;;;;;;0.10;0.10;;;;;;;37.76;27.06;100185.44;4996150;28;20057;-76
2022/07/02 10:58:36;;;;;;;0.10;0.10;;;;;;;38.18;27.70;100180.75;4996527;28;20462;-76
2022/07/02 11:01:17;;;;;;;0.10;0.10;;;;;;;38.17;27.13;100184.22;4996344;28;20034;-76
2022/07/02 11:04:02;;;;;;;0.10;0.10;;;;;;;37.26;28.62;100181.22;4995502;28;20042;-79
2022/07/02 11:06:30;;;;;;;0.10;0.10;;;;;;;37.54;27.83;100183.69;4979699;28;20034;-77
2022/07/02 11:09:04;;;;;;;0.10;0.10;;;;;;;37.21;29.41;100179.16;4994929;28;20022;-82
2022/07/02 11:11:48;;;;;;;0.10;0.10;;;;;;;37.19;29.51;100176.03;4995172;28;20026;-83
2022/07/02 11:14:20;;;;;;;0.10;0.10;;;;;;;37.75;28.63;100175.94;4995103;28;20061;-77
2022/07/02 11:16:45;;;;;;;0.10;0.10;;;;;;;36.88;28.64;100172.47;4995804;28;20023;-79
2022/07/02 11:19:18;;;;;;;0.10;0.10;;;;;;;37.43;29.17;100170.16;5003119;28;20046;-78
2022/07/02 11:21:49;;;;;;;0.10;0.10;;;;;;;37.18;29.56;100169.47;5002290;28;20030;-79
2022/07/02 11:24:20;;;;;;;0.10;0.10;;;;;;;36.50;29.70;100159.28;4995424;28;20039;-82
2022/07/02 11:26:46;;;;;;;0.10;0.10;;;;;;;36.49;30.00;100163.47;4995668;28;20026;-81
2022/07/02 11:29:13;;;;;;;0.10;0.10;;;;;;;36.44;29.52;100163.03;4995599;28;20076;-76
2022/07/02 11:31:42;;;;;;;0.10;0.10;;;;;;;36.81;31.23;100158.63;4994689;28;20041;-83